Time;durP1;ratioP1;P1;durP2;ratioP2;P2;SDS_P1;SDS_P2;PMS_P1;PMS_P2;Temp;Humidity;BMP_temperature;BMP_pressure;BME280_temperature;BME280_humidity;BME280_pressure;Samples;Min_cycle;Max_cycle;Signal;HPM_P1;HPM_P2
2022/05/11 00:02:22;;;;;;;16.00;7.00;;;;;;;14.95;45.80;99172.02;232447;1221;138693;-61
2022/05/11 00:07:31;;;;;;;14.30;7.50;;;;;;;14.87;45.97;99161.39;232772;1222;138013;-61
2022/05/11 00:12:38;;;;;;;17.30;7.20;;;;;;;14.83;45.96;99166.31;232379;1222;139885;-62
2022/05/11 00:17:50;;;;;;;14.90;7.10;;;;;;;14.73;45.99;99162.81;232535;1222;138922;-61
2022/05/11 00:22:56;;;;;;;16.50;7.30;;;;;;;14.60;46.29;99150.96;232666;1221;138800;-60
2022/05/11 00:28:04;;;;;;;14.00;7.40;;;;;;;14.56;46.39;99151.66;232678;1221;138478;-62
2022/05/11 00:33:16;;;;;;;16.80;7.40;;;;;;;14.51;46.41;99141.11;232610;1221;138820;-61
2022/05/11 00:38:35;;;;;;;13.20;7.40;;;;;;;14.50;46.65;99138.52;232673;1222;138949;-61
2022/05/11 00:43:57;;;;;;;16.20;7.50;;;;;;;14.49;46.79;99140.27;232861;1221;140855;-61
2022/05/11 00:49:38;;;;;;;14.50;6.90;;;;;;;14.47;46.93;99144.30;232829;1222;138246;-64
2022/05/11 00:55:28;;;;;;;18.40;7.80;;;;;;;14.45;47.15;99148.91;232509;1221;139194;-66
2022/05/11 01:00:53;;;;;;;15.40;7.10;;;;;;;14.36;47.31;99154.34;232775;1221;138438;-65
2022/05/11 01:06:13;;;;;;;14.60;6.90;;;;;;;14.31;47.66;99149.58;232382;1222;138702;-64
2022/05/11 01:11:30;;;;;;;15.60;6.70;;;;;;;14.28;47.60;99143.94;232454;1220;138388;-65
2022/05/11 01:16:41;;;;;;;15.10;7.20;;;;;;;14.23;47.76;99137.13;232555;1220;140703;-63
2022/05/11 01:21:58;;;;;;;14.90;7.40;;;;;;;14.25;47.98;99138.65;232114;1221;138504;-64
2022/05/11 01:27:29;;;;;;;11.70;6.60;;;;;;;14.25;48.26;99135.96;232278;1222;138938;-61
2022/05/11 01:32:38;;;;;;;13.00;7.60;;;;;;;14.24;48.36;99133.89;232573;1220;138438;-63
2022/05/11 01:38:04;;;;;;;15.00;6.80;;;;;;;14.20;48.05;99130.80;232669;1220;138543;-62
2022/05/11 01:43:24;;;;;;;15.00;7.70;;;;;;;14.13;48.31;99126.51;232996;1220;138927;-61
2022/05/11 01:48:43;;;;;;;11.60;7.30;;;;;;;14.09;48.43;99130.20;232549;1221;138564;-62
2022/05/11 01:54:06;;;;;;;14.30;7.20;;;;;;;14.03;48.17;99129.06;232566;1221;138851;-60
2022/05/11 01:59:17;;;;;;;12.80;6.70;;;;;;;13.99;48.40;99122.02;232764;1220;138533;-63
2022/05/11 02:10:09;;;;;;;11.80;6.40;;;;;;;13.93;48.84;99115.86;232575;1220;138965;-64
2022/05/11 02:15:36;;;;;;;13.50;7.10;;;;;;;13.89;48.80;99106.36;232569;1222;138481;-63
2022/05/11 02:20:43;;;;;;;13.50;6.70;;;;;;;13.88;49.27;99103.58;232608;1221;140492;-63
2022/05/11 02:25:52;;;;;;;14.80;7.30;;;;;;;13.88;49.10;99103.23;232716;1222;138495;-62
2022/05/11 02:31:21;;;;;;;15.40;7.90;;;;;;;13.82;49.37;99095.14;232614;1220;138269;-63
2022/05/11 02:36:38;;;;;;;15.70;7.50;;;;;;;13.83;49.36;99091.68;232180;1222;139121;-63
2022/05/11 02:41:49;;;;;;;12.70;6.40;;;;;;;13.84;49.31;99088.88;232802;1220;138816;-64
2022/05/11 02:47:06;;;;;;;16.10;7.40;;;;;;;13.77;49.41;99086.25;232458;1222;138504;-64
2022/05/11 02:52:24;;;;;;;12.40;6.20;;;;;;;13.75;49.65;99090.49;232322;1222;138949;-61
2022/05/11 02:57:44;;;;;;;14.00;7.00;;;;;;;13.77;49.72;99088.71;232565;1220;138913;-60
2022/05/11 03:03:01;;;;;;;18.20;7.20;;;;;;;13.82;49.66;99088.13;232716;1220;140044;-62
2022/05/11 03:08:23;;;;;;;14.50;7.00;;;;;;;13.88;49.61;99080.92;232818;1222;139525;-61
2022/05/11 03:13:37;;;;;;;13.30;6.70;;;;;;;13.92;49.51;99087.20;232474;1221;138616;-60
2022/05/11 03:18:47;;;;;;;15.40;7.10;;;;;;;13.98;49.53;99085.70;232286;1222;140365;-60
2022/05/11 03:24:09;;;;;;;14.20;6.30;;;;;;;14.00;49.47;99085.76;231972;1223;138567;-62
2022/05/11 03:29:19;;;;;;;13.30;7.40;;;;;;;13.96;49.67;99084.95;232322;1221;138927;-61
2022/05/11 03:34:38;;;;;;;15.20;7.40;;;;;;;13.96;50.02;99083.89;231943;1222;139712;-60
2022/05/11 03:39:43;;;;;;;16.30;7.10;;;;;;;13.98;49.82;99081.95;232074;1221;139438;-61
2022/05/11 03:44:53;;;;;;;21.50;7.30;;;;;;;13.99;49.93;99079.42;232417;1222;139175;-62
2022/05/11 03:50:11;;;;;;;20.10;6.90;;;;;;;13.99;49.99;99077.98;232602;1222;138659;-62
2022/05/11 03:55:18;;;;;;;16.50;7.00;;;;;;;13.99;50.27;99077.60;232429;1222;139256;-63
2022/05/11 04:00:24;;;;;;;;;;;;;;;14.01;50.22;99079.44;232380;1222;138149;-62
2022/05/11 04:05:28;;;;;;;17.80;7.40;;;;;;;13.99;50.65;99078.00;232569;1222;125277;-62
2022/05/11 04:10:43;;;;;;;25.10;15.60;;;;;;;14.02;50.74;99082.17;232476;1221;138708;-63
2022/05/11 04:15:57;;;;;;;14.70;7.60;;;;;;;14.11;51.23;99075.09;232408;1222;138863;-62
2022/05/11 04:21:03;;;;;;;22.70;7.60;;;;;;;14.19;50.94;99079.63;232439;1222;138971;-63
2022/05/11 04:26:16;;;;;;;265.40;199.10;;;;;;;14.30;51.54;99079.67;232535;1222;138822;-65
2022/05/11 04:31:29;;;;;;;25.50;14.10;;;;;;;14.48;51.52;99084.76;232473;1222;139634;-64
2022/05/11 04:36:37;;;;;;;15.50;7.90;;;;;;;14.60;51.50;99078.30;232511;1222;138598;-63
2022/05/11 04:41:43;;;;;;;15.00;7.90;;;;;;;14.73;51.58;99079.66;232416;1221;138331;-63
2022/05/11 04:46:49;;;;;;;42.20;26.80;;;;;;;14.92;51.40;99080.27;232557;1222;140073;-61
2022/05/11 04:52:02;;;;;;;16.30;7.40;;;;;;;15.19;51.81;99082.73;232180;1222;139015;-60
2022/05/11 04:57:07;;;;;;;8.10;4.70;;;;;;;15.36;51.40;99076.89;232174;1221;138647;-61
2022/05/11 05:02:17;;;;;;;12.60;4.80;;;;;;;15.68;50.22;99080.61;232658;1222;138864;-62
2022/05/11 05:07:21;;;;;;;9.20;4.30;;;;;;;15.93;49.71;99083.00;232351;1222;139217;-61
2022/05/11 05:12:28;;;;;;;9.20;4.00;;;;;;;16.20;49.07;99088.71;232270;1221;138172;-62
2022/05/11 05:17:33;;;;;;;75.00;58.80;;;;;;;16.39;48.47;99083.95;232679;1222;137920;-63
2022/05/11 05:22:47;;;;;;;8.90;5.10;;;;;;;16.64;48.16;99088.95;232585;1222;139009;-62
2022/05/11 05:31:04;;;;;;;10.00;4.60;;;;;;;16.79;47.48;99087.11;232007;1222;138651;-65
2022/05/11 05:33:35;;;;;;;12.10;4.70;;;;;;;16.95;47.04;99084.26;232209;1222;139606;-64
2022/05/11 05:38:49;;;;;;;14.00;4.70;;;;;;;17.14;46.73;99078.84;232332;1222;138584;-63
2022/05/11 05:43:56;;;;;;;15.30;4.70;;;;;;;17.29;46.20;99079.55;232625;1223;138442;-63
2022/05/11 05:49:12;;;;;;;13.00;6.00;;;;;;;17.46;46.03;99071.19;232216;1222;139286;-64
2022/05/11 05:54:26;;;;;;;;;;;;;;;17.66;46.40;99079.35;232051;1223;138648;-62
2022/05/11 05:59:50;;;;;;;15.20;5.40;;;;;;;17.93;46.56;99073.21;231940;1224;126413;-63
2022/05/11 06:04:57;;;;;;;8.40;4.60;;;;;;;18.18;46.49;99068.48;232088;1224;138562;-65
2022/05/11 06:10:11;;;;;;;11.70;4.90;;;;;;;18.38;46.09;99069.24;231820;1224;139247;-62
2022/05/11 06:15:21;;;;;;;8.20;4.20;;;;;;;18.51;45.84;99070.66;231907;1223;138961;-62
2022/05/11 06:20:37;;;;;;;16.70;11.10;;;;;;;18.70;45.57;99068.20;232175;1223;138144;-64
2022/05/11 06:25:41;;;;;;;10.30;3.80;;;;;;;18.82;44.81;99075.70;231990;1222;140761;-61
2022/05/11 06:30:47;;;;;;;12.10;3.80;;;;;;;18.83;44.62;99066.19;231969;1224;141248;-62
2022/05/11 06:35:58;;;;;;;35.30;24.20;;;;;;;18.93;44.31;99072.09;231957;1223;139124;-61
2022/05/11 06:41:25;;;;;;;10.50;6.60;;;;;;;18.98;44.06;99075.73;232329;1224;140251;-63
2022/05/11 06:46:41;;;;;;;10.90;4.20;;;;;;;19.13;43.81;99073.98;232443;1223;138990;-62
2022/05/11 06:51:55;;;;;;;13.80;4.00;;;;;;;19.22;43.81;99064.44;232177;1224;139146;-62
2022/05/11 07:02:34;;;;;;;12.10;3.80;;;;;;;19.48;43.58;99062.42;232245;1223;138591;-62
2022/05/11 07:07:47;;;;;;;10.50;3.90;;;;;;;19.63;43.47;99059.81;232370;1224;138145;-62
2022/05/11 07:13:04;;;;;;;12.60;3.90;;;;;;;19.80;43.52;99058.21;231978;1223;138575;-64
2022/05/11 07:18:07;;;;;;;9.90;4.10;;;;;;;19.91;43.42;99049.84;232205;1224;141327;-60
2022/05/11 07:23:12;;;;;;;9.40;4.10;;;;;;;20.15;43.42;99054.82;232603;1223;139296;-62
2022/05/11 07:28:16;;;;;;;7.80;4.20;;;;;;;20.39;43.25;99049.34;231886;1222;138768;-61
2022/05/11 07:33:19;;;;;;;10.00;3.50;;;;;;;20.61;43.06;99043.71;232332;1224;139764;-63
2022/05/11 07:38:22;;;;;;;9.20;3.50;;;;;;;20.81;42.75;99042.85;232457;1223;138705;-63
2022/05/11 07:43:25;;;;;;;11.20;3.80;;;;;;;20.99;42.68;99035.38;232411;1222;138525;-59
2022/05/11 07:48:28;;;;;;;11.80;3.50;;;;;;;21.22;42.34;99033.31;232306;1222;139058;-60
2022/05/11 07:53:32;;;;;;;9.60;3.80;;;;;;;21.41;42.12;99027.63;232265;1223;138773;-61
2022/05/11 08:03:57;;;;;;;11.00;4.80;;;;;;;21.76;41.51;99011.59;232734;1223;140957;-65
2022/05/11 08:09:00;;;;;;;10.80;4.10;;;;;;;21.90;41.36;99010.61;232205;1222;138960;-62
2022/05/11 08:14:03;;;;;;;6.30;3.50;;;;;;;22.01;41.21;98998.48;232407;1224;138842;-65
2022/05/11 08:19:07;;;;;;;8.40;3.90;;;;;;;22.16;41.17;98997.66;232556;1222;138944;-63
2022/05/11 08:24:11;;;;;;;10.80;3.70;;;;;;;22.35;40.88;98998.41;231552;1223;138413;-62
2022/05/11 08:34:46;;;;;;;9.70;3.80;;;;;;;22.71;40.44;98997.97;231601;1224;141622;-63
2022/05/11 08:39:54;;;;;;;9.70;3.90;;;;;;;22.83;40.34;98995.31;231976;1222;139292;-63
2022/05/11 08:45:03;;;;;;;12.90;4.10;;;;;;;22.98;40.37;98991.63;231728;1222;138319;-62
2022/05/11 08:50:21;;;;;;;7.40;3.90;;;;;;;23.21;40.37;98989.05;231512;1222;138924;-62
2022/05/11 08:55:31;;;;;;;8.00;3.30;;;;;;;23.42;40.29;98987.64;230920;1223;138352;-58
2022/05/11 09:00:39;;;;;;;7.10;3.60;;;;;;;23.60;40.01;98988.52;231093;1223;138286;-63
2022/05/11 09:05:46;;;;;;;6.50;3.20;;;;;;;23.77;39.74;98987.35;231803;1224;138303;-64
2022/05/11 09:10:55;;;;;;;7.20;3.30;;;;;;;23.95;39.57;98979.08;231471;1223;138603;-63
2022/05/11 09:16:22;;;;;;;8.40;3.30;;;;;;;24.13;39.42;98974.49;231198;1224;139174;-65
2022/05/11 09:21:35;;;;;;;11.60;3.50;;;;;;;24.29;39.23;98971.61;231357;1223;138667;-63
2022/05/11 09:26:44;;;;;;;6.70;3.40;;;;;;;24.44;38.87;98977.48;231649;1223;138309;-63
2022/05/11 09:31:53;;;;;;;8.70;3.50;;;;;;;24.56;38.52;98973.65;231259;1223;139119;-58
2022/05/11 09:37:14;;;;;;;6.60;3.50;;;;;;;24.71;38.59;98973.00;232612;1222;138445;-60
2022/05/11 09:42:30;;;;;;;42.50;32.30;;;;;;;24.83;38.57;98970.29;231539;1223;138250;-59
2022/05/11 09:48:02;;;;;;;9.40;4.90;;;;;;;25.01;38.35;98968.60;231817;1222;138952;-59
2022/05/11 09:53:22;;;;;;;5.70;3.00;;;;;;;25.20;38.19;98965.80;231332;1224;138582;-61
2022/05/11 09:58:30;;;;;;;208.10;159.20;;;;;;;25.35;37.75;98965.73;231018;1224;139127;-60
2022/05/11 10:03:41;;;;;;;11.60;6.20;;;;;;;25.50;37.38;98955.63;231308;1223;139221;-60
2022/05/11 10:08:51;;;;;;;6.30;3.30;;;;;;;25.66;37.16;98958.73;232406;1223;139955;-60
2022/05/11 10:21:49;;;;;;;7.50;3.50;;;;;;;25.88;36.90;98946.31;231526;1223;139620;-59
2022/05/11 10:25:18;;;;;;;6.60;2.70;;;;;;;26.46;35.87;98943.08;231206;1222;138679;-59
2022/05/11 10:30:34;;;;;;;8.40;4.70;;;;;;;26.64;35.69;98941.95;231599;1222;139485;-59
2022/05/11 10:35:53;;;;;;;8.40;3.30;;;;;;;26.80;35.22;98944.40;230976;1222;139271;-59
2022/05/11 10:41:32;;;;;;;8.20;3.00;;;;;;;26.89;34.92;98934.33;231654;1222;138712;-60
2022/05/11 10:47:06;;;;;;;4.80;2.70;;;;;;;27.15;34.76;98936.60;230977;1223;138197;-62
2022/05/11 10:52:32;;;;;;;4.70;2.70;;;;;;;27.46;34.15;98935.90;230976;1222;138278;-62
2022/05/11 10:58:01;;;;;;;4.50;2.70;;;;;;;27.64;33.65;98927.57;230940;1222;139062;-60
2022/05/11 11:03:36;;;;;;;6.20;3.40;;;;;;;27.77;33.29;98920.32;232381;1222;138422;-61
2022/05/11 11:09:24;;;;;;;5.40;3.20;;;;;;;27.88;33.05;98925.98;232015;1222;138298;-60
2022/05/11 11:14:39;;;;;;;7.70;2.70;;;;;;;28.06;32.78;98918.41;231394;1222;138727;-60
2022/05/11 11:19:47;;;;;;;5.30;2.50;;;;;;;28.20;32.47;98921.73;232569;1224;138838;-63
2022/05/11 11:25:10;;;;;;;21.00;15.90;;;;;;;28.11;31.85;98912.56;232585;1223;138851;-60
2022/05/11 11:30:13;;;;;;;8.70;3.50;;;;;;;27.97;31.80;98920.63;232438;1223;139624;-61
2022/05/11 11:35:41;;;;;;;7.80;3.00;;;;;;;27.81;32.01;98923.25;232649;1223;138598;-61
2022/05/11 11:41:14;;;;;;;7.30;3.30;;;;;;;27.72;32.23;98913.57;232460;1224;138976;-60
2022/05/11 11:46:28;;;;;;;10.90;3.40;;;;;;;27.57;31.99;98909.25;232371;1223;139298;-58
2022/05/11 11:51:49;;;;;;;5.50;2.90;;;;;;;27.54;31.70;98913.50;232698;1223;141344;-61
2022/05/11 11:56:54;;;;;;;5.10;3.00;;;;;;;27.61;31.70;98911.11;232599;1223;138475;-59
2022/05/11 12:02:22;;;;;;;4.80;2.90;;;;;;;27.69;31.65;98910.16;232295;1223;138593;-60
2022/05/11 12:18:34;;;;;;;8.60;2.90;;;;;;;27.61;30.89;98899.33;232482;1223;138658;-59
2022/05/11 12:23:46;;;;;;;6.70;2.90;;;;;;;27.54;30.83;98893.01;232597;1221;140268;-60
2022/05/11 12:28:49;;;;;;;3.70;2.70;;;;;;;27.67;31.10;98885.84;232246;1223;138696;-60
2022/05/11 12:33:55;;;;;;;4.60;2.60;;;;;;;27.72;30.97;98878.18;232500;1224;138831;-60
2022/05/11 12:38:59;;;;;;;10.30;2.70;;;;;;;27.78;30.61;98873.21;232533;1223;139180;-60
2022/05/11 12:44:05;;;;;;;3.70;2.60;;;;;;;27.88;30.35;98871.31;232259;1223;138983;-59
2022/05/11 12:49:14;;;;;;;34.70;31.20;;;;;;;28.05;30.15;98872.91;232477;1223;140159;-58
2022/05/11 12:54:20;;;;;;;18.60;15.60;;;;;;;28.08;29.96;98862.38;232452;1222;139118;-59
2022/05/11 12:59:25;;;;;;;7.70;5.50;;;;;;;27.99;30.15;98847.66;232452;1223;138984;-60
2022/05/11 13:04:28;;;;;;;5.60;2.50;;;;;;;28.01;30.13;98849.38;232115;1223;139016;-60
2022/05/11 13:09:43;;;;;;;9.80;2.90;;;;;;;27.97;29.94;98849.27;232453;1224;138760;-59
2022/05/11 13:14:53;;;;;;;4.90;2.40;;;;;;;27.98;29.37;98851.87;232576;1223;138836;-63
2022/05/11 13:20:00;;;;;;;32.50;20.40;;;;;;;27.92;29.37;98848.17;232629;1222;138210;-61
2022/05/11 13:25:06;;;;;;;5.40;2.60;;;;;;;27.97;29.48;98845.02;232571;1222;139032;-61
2022/05/11 13:30:15;;;;;;;3.90;2.80;;;;;;;28.28;29.59;98836.30;232547;1222;139737;-59
2022/05/11 13:35:31;;;;;;;8.90;2.60;;;;;;;28.50;29.24;98831.74;232454;1223;138509;-60
2022/05/11 13:40:41;;;;;;;4.50;2.20;;;;;;;28.47;29.07;98829.67;232587;1222;138686;-59
2022/05/11 13:45:59;;;;;;;10.80;2.50;;;;;;;28.29;28.85;98827.81;232302;1224;139623;-62
2022/05/11 13:51:15;;;;;;;6.20;2.70;;;;;;;28.14;28.82;98814.55;232527;1224;138991;-61
2022/05/11 13:56:28;;;;;;;5.80;2.40;;;;;;;28.03;28.71;98815.15;232517;1223;138649;-58
2022/05/11 14:01:47;;;;;;;6.90;2.70;;;;;;;28.00;28.87;98804.01;232595;1223;139253;-60
2022/05/11 14:06:57;;;;;;;7.40;2.40;;;;;;;28.06;28.92;98798.02;232479;1223;139282;-59
2022/05/11 14:12:01;;;;;;;8.80;4.20;;;;;;;28.18;28.80;98800.73;232446;1223;138728;-63
2022/05/11 14:17:07;;;;;;;6.60;2.70;;;;;;;28.23;28.67;98797.69;232456;1223;138688;-60
2022/05/11 14:22:10;;;;;;;6.00;2.30;;;;;;;28.40;28.45;98785.61;232354;1223;138505;-59
2022/05/11 14:27:17;;;;;;;7.60;2.30;;;;;;;28.54;28.21;98782.52;232590;1223;138434;-58
2022/05/11 14:32:26;;;;;;;11.20;2.60;;;;;;;28.61;27.83;98785.77;232686;1222;138851;-59
2022/05/11 14:37:39;;;;;;;5.50;2.20;;;;;;;28.51;26.98;98781.15;232635;1223;138903;-60
2022/05/11 14:42:42;;;;;;;3.00;2.00;;;;;;;28.34;26.96;98782.28;232480;1223;138533;-60
2022/05/11 14:47:54;;;;;;;6.80;2.20;;;;;;;28.17;27.01;98776.82;232429;1223;139091;-62
2022/05/11 14:53:00;;;;;;;8.00;2.50;;;;;;;27.96;27.24;98769.42;232353;1223;141586;-58
2022/05/11 15:03:25;;;;;;;34.30;30.60;;;;;;;27.65;27.19;98769.98;232525;1222;138967;-59
2022/05/11 15:08:28;;;;;;;5.50;3.20;;;;;;;27.51;27.44;98761.11;232499;1223;139162;-60
2022/05/11 15:13:31;;;;;;;23.80;19.70;;;;;;;27.41;27.64;98762.55;232407;1223;138856;-60
2022/05/11 15:18:34;;;;;;;5.40;3.50;;;;;;;27.33;28.06;98759.02;232443;1222;139170;-58
2022/05/11 15:23:37;;;;;;;7.00;2.70;;;;;;;27.25;28.11;98758.13;232382;1223;138459;-59
2022/05/11 15:28:40;;;;;;;7.10;2.60;;;;;;;27.16;28.38;98752.23;232557;1222;139052;-59
2022/05/11 15:33:44;;;;;;;8.60;4.60;;;;;;;27.11;28.77;98750.58;232448;1222;139782;-59
2022/05/11 15:38:47;;;;;;;5.50;3.00;;;;;;;27.08;28.82;98752.56;232530;1222;138612;-58
2022/05/11 15:43:50;;;;;;;9.60;2.70;;;;;;;27.03;28.80;98752.11;232432;1223;138543;-59
2022/05/11 15:48:53;;;;;;;5.90;2.40;;;;;;;27.02;29.08;98750.71;232246;1222;138514;-60
2022/05/11 15:53:56;;;;;;;9.80;6.20;;;;;;;27.01;28.89;98751.02;232360;1223;138605;-59
2022/05/11 15:58:59;;;;;;;8.10;2.90;;;;;;;26.97;28.92;98746.26;232402;1222;138594;-58
2022/05/11 16:04:03;;;;;;;40.40;24.30;;;;;;;26.90;28.87;98737.77;232507;1222;138444;-59
2022/05/11 16:09:06;;;;;;;8.60;4.70;;;;;;;26.81;28.95;98732.24;232480;1222;139650;-59
2022/05/11 16:14:13;;;;;;;3.90;2.60;;;;;;;26.73;28.78;98732.98;232299;1222;138692;-59
2022/05/11 16:24:38;;;;;;;6.00;2.50;;;;;;;26.53;28.85;98727.64;232367;1222;139576;-58
2022/05/11 16:29:42;;;;;;;3.10;2.60;;;;;;;26.46;28.97;98724.27;232303;1223;139432;-59
2022/05/11 16:34:46;;;;;;;5.70;2.90;;;;;;;26.44;28.94;98723.36;232261;1223;138918;-58
2022/05/11 16:39:51;;;;;;;8.40;3.30;;;;;;;26.42;29.17;98721.06;231954;1221;138754;-59
2022/05/11 16:44:54;;;;;;;;;;;;;;;26.40;29.26;98716.32;232476;1223;139109;-60
2022/05/11 16:49:58;;;;;;;7.40;3.20;;;;;;;26.38;29.43;98712.95;232170;1223;125846;-58
2022/05/11 16:55:02;;;;;;;5.20;2.80;;;;;;;26.33;29.51;98707.14;232479;1223;139502;-58
2022/05/11 17:00:11;;;;;;;8.20;2.80;;;;;;;26.31;29.57;98708.31;232393;1223;138832;-60
2022/05/11 17:05:14;;;;;;;7.10;3.20;;;;;;;26.26;29.83;98711.23;232351;1222;139109;-60
2022/05/11 17:10:17;;;;;;;6.20;3.10;;;;;;;26.20;29.92;98714.11;232320;1222;138914;-60
2022/05/11 17:15:21;;;;;;;6.80;3.00;;;;;;;26.16;30.11;98717.14;232537;1222;138422;-60
2022/05/11 17:20:24;;;;;;;66.60;46.70;;;;;;;26.12;30.35;98714.95;232399;1223;139100;-60
2022/05/11 17:25:28;;;;;;;12.20;8.00;;;;;;;26.12;30.51;98714.31;232344;1222;139262;-62
2022/05/11 17:30:31;;;;;;;8.90;3.40;;;;;;;26.09;30.66;98715.98;232227;1223;140494;-60
2022/05/11 17:35:34;;;;;;;7.00;3.40;;;;;;;26.03;30.76;98717.16;232424;1223;138557;-61
2022/05/11 17:40:38;;;;;;;6.50;3.40;;;;;;;25.98;30.92;98720.16;232312;1222;139799;-60
2022/05/11 17:45:42;;;;;;;6.90;3.60;;;;;;;25.91;31.01;98715.97;232391;1223;139229;-60
2022/05/11 17:50:46;;;;;;;7.70;3.40;;;;;;;25.85;31.11;98718.97;232328;1223;138599;-59
2022/05/11 17:55:49;;;;;;;10.80;3.50;;;;;;;25.83;31.15;98723.81;232190;1221;138577;-59
2022/05/11 18:00:52;;;;;;;6.90;3.50;;;;;;;25.78;31.30;98722.84;232295;1223;139599;-60
2022/05/11 18:05:55;;;;;;;7.60;3.40;;;;;;;25.72;31.45;98722.87;232529;1222;138889;-59
2022/05/11 18:10:59;;;;;;;156.50;124.20;;;;;;;25.68;31.62;98729.27;232502;1222;139683;-59
2022/05/11 18:16:02;;;;;;;21.70;17.30;;;;;;;25.62;31.77;98726.04;232142;1222;139445;-60
2022/05/11 18:21:07;;;;;;;10.40;5.40;;;;;;;25.58;32.22;98723.38;232496;1222;138933;-60
2022/05/11 18:26:10;;;;;;;11.20;6.30;;;;;;;25.46;32.52;98727.98;232399;1222;139558;-60
2022/05/11 18:31:13;;;;;;;11.80;4.60;;;;;;;25.31;33.07;98724.09;232377;1222;139106;-59
2022/05/11 18:36:16;;;;;;;18.60;5.40;;;;;;;25.10;33.53;98725.09;232418;1222;139030;-58
2022/05/11 18:41:19;;;;;;;14.40;4.60;;;;;;;24.87;33.86;98733.86;232168;1223;139323;-59
2022/05/11 18:46:23;;;;;;;11.50;5.20;;;;;;;24.66;34.27;98741.02;232210;1222;140553;-59
2022/05/11 18:51:26;;;;;;;12.60;5.50;;;;;;;24.43;34.59;98745.55;232416;1222;140352;-58
2022/05/11 18:56:30;;;;;;;10.40;5.30;;;;;;;24.23;34.76;98747.46;232505;1222;139828;-59
2022/05/11 19:01:34;;;;;;;12.40;6.10;;;;;;;24.07;35.20;98754.06;232194;1223;140087;-61
2022/05/11 19:06:38;;;;;;;12.90;5.70;;;;;;;23.92;35.42;98762.94;232138;1221;139653;-59
2022/05/11 19:11:44;;;;;;;172.50;136.70;;;;;;;23.76;36.05;98765.94;232323;1222;141458;-59
2022/05/11 19:16:48;;;;;;;32.70;18.20;;;;;;;23.70;36.91;98765.95;232442;1222;139959;-60
2022/05/11 19:21:51;;;;;;;23.50;6.80;;;;;;;23.59;37.06;98762.95;232502;1222;139231;-60
2022/05/11 19:26:54;;;;;;;207.50;172.90;;;;;;;23.38;37.21;98767.80;232599;1222;140031;-60
2022/05/11 19:31:57;;;;;;;17.90;11.70;;;;;;;23.37;37.16;98769.17;232331;1222;139631;-60
2022/05/11 19:37:01;;;;;;;12.50;5.70;;;;;;;23.37;37.14;98767.02;232657;1222;139956;-61
2022/05/11 19:42:04;;;;;;;12.70;5.30;;;;;;;23.37;37.59;98765.53;232415;1223;140640;-61
2022/05/11 19:47:08;;;;;;;9.40;5.30;;;;;;;23.29;37.70;98768.08;232338;1223;139190;-61
2022/05/11 19:52:11;;;;;;;8.90;4.90;;;;;;;23.17;38.01;98769.55;232387;1222;139379;-60
2022/05/11 19:57:15;;;;;;;12.50;5.00;;;;;;;23.12;38.01;98769.25;232360;1221;138953;-64
2022/05/11 20:02:18;;;;;;;9.10;5.30;;;;;;;23.11;37.74;98767.98;232339;1221;143044;-60
2022/05/11 20:07:25;;;;;;;13.10;4.90;;;;;;;23.07;37.66;98769.08;232527;1222;139332;-60
2022/05/11 20:12:28;;;;;;;7.90;5.30;;;;;;;23.11;37.53;98773.20;232385;1223;141340;-60
2022/05/11 20:17:31;;;;;;;12.80;5.60;;;;;;;23.12;37.47;98763.41;232146;1223;138785;-59
2022/05/11 20:22:34;;;;;;;9.80;5.50;;;;;;;23.16;37.48;98769.87;232278;1223;138857;-60
2022/05/11 20:27:38;;;;;;;12.70;5.60;;;;;;;23.14;37.59;98772.14;232549;1222;139356;-60
2022/05/11 20:38:03;;;;;;;13.20;6.00;;;;;;;22.95;37.82;98764.59;232421;1223;138840;-61
2022/05/11 20:43:07;;;;;;;13.00;6.20;;;;;;;22.86;38.17;98766.67;232237;1224;139372;-61
2022/05/11 20:48:13;;;;;;;15.20;6.50;;;;;;;22.71;38.40;98763.54;232510;1223;139724;-60
2022/05/11 20:53:16;;;;;;;;;;;;;;;22.57;38.55;98769.19;232445;1222;139312;-59
2022/05/11 20:58:19;;;;;;;13.80;6.00;;;;;;;22.44;38.61;98770.02;232408;1222;125149;-60
2022/05/11 21:03:22;;;;;;;12.30;5.90;;;;;;;22.42;38.75;98765.14;232416;1222;140275;-61
2022/05/11 21:08:25;;;;;;;11.80;6.10;;;;;;;22.44;38.81;98767.61;232727;1222;138585;-61
2022/05/11 21:13:29;;;;;;;12.50;5.40;;;;;;;22.43;38.84;98763.91;232519;1222;139676;-60
2022/05/11 21:18:32;;;;;;;14.10;5.30;;;;;;;22.37;38.81;98761.34;232426;1222;138933;-61
2022/05/11 21:23:35;;;;;;;11.90;6.10;;;;;;;22.34;39.25;98761.48;232387;1222;139333;-60
2022/05/11 21:28:38;;;;;;;13.70;6.30;;;;;;;22.21;39.63;98763.75;232439;1222;139161;-60
2022/05/11 21:33:41;;;;;;;8.80;5.80;;;;;;;22.00;40.01;98760.72;232546;1223;139454;-61
2022/05/11 21:38:47;;;;;;;13.70;5.80;;;;;;;21.82;40.49;98759.52;232652;1222;138807;-60
2022/05/11 21:43:50;;;;;;;11.00;5.80;;;;;;;21.64;40.68;98760.67;232370;1222;139861;-61
2022/05/11 21:48:53;;;;;;;11.10;5.40;;;;;;;21.46;41.14;98759.36;232458;1222;139129;-60
2022/05/11 21:54:04;;;;;;;13.50;6.20;;;;;;;21.29;41.22;98758.01;232621;1222;141757;-61
2022/05/11 21:59:09;;;;;;;13.60;7.00;;;;;;;21.14;41.33;98754.77;232473;1223;139420;-60
2022/05/11 22:04:12;;;;;;;12.80;6.70;;;;;;;21.02;41.46;98754.52;232584;1223;139009;-60
2022/05/11 22:09:16;;;;;;;20.30;6.90;;;;;;;20.88;41.83;98747.92;232449;1223;139185;-60
2022/05/11 22:14:18;;;;;;;17.30;6.90;;;;;;;20.78;42.10;98745.84;232205;1224;139492;-60
2022/05/11 22:19:25;;;;;;;14.40;6.30;;;;;;;20.66;42.26;98736.86;232680;1222;139085;-59
2022/05/11 22:24:28;;;;;;;14.80;5.90;;;;;;;20.57;42.63;98748.45;232535;1223;139219;-61
2022/05/11 22:29:31;;;;;;;11.20;5.80;;;;;;;20.48;42.91;98748.08;232469;1223;138848;-61
2022/05/11 22:34:34;;;;;;;12.70;5.80;;;;;;;20.39;43.17;98749.06;232445;1222;139238;-61
2022/05/11 22:39:38;;;;;;;12.00;5.80;;;;;;;20.29;43.32;98744.16;232351;1223;140628;-60
2022/05/11 22:44:41;;;;;;;8.60;5.40;;;;;;;20.22;43.54;98742.95;232404;1223;139463;-60
2022/05/11 22:49:44;;;;;;;12.30;5.50;;;;;;;20.15;43.71;98743.44;232613;1223;139672;-61
2022/05/11 22:54:47;;;;;;;7.90;5.40;;;;;;;20.05;43.91;98737.36;232222;1224;139521;-60
2022/05/11 22:59:50;;;;;;;9.40;5.40;;;;;;;19.97;44.16;98737.96;232559;1222;138867;-60
2022/05/11 23:04:53;;;;;;;6.90;5.20;;;;;;;19.88;44.44;98737.56;232462;1222;138530;-60
2022/05/11 23:09:57;;;;;;;11.30;5.40;;;;;;;19.81;44.53;98737.83;232733;1222;139018;-59
2022/05/11 23:15:00;;;;;;;8.60;5.00;;;;;;;19.73;44.79;98731.65;232560;1222;139052;-64
2022/05/11 23:20:05;;;;;;;7.10;5.10;;;;;;;19.65;44.79;98732.04;231245;1223;138855;-59
2022/05/11 23:25:11;;;;;;;8.10;5.20;;;;;;;19.58;45.09;98727.38;232303;1224;138974;-60
2022/05/11 23:30:18;;;;;;;8.30;5.20;;;;;;;19.50;45.23;98723.73;232338;1222;140509;-64
2022/05/11 23:35:21;;;;;;;10.00;5.40;;;;;;;19.41;45.53;98719.78;232418;1223;138914;-60
2022/05/11 23:40:27;;;;;;;7.60;5.20;;;;;;;19.33;45.69;98726.39;232252;1223;138989;-59
2022/05/11 23:45:30;;;;;;;7.50;5.60;;;;;;;19.26;46.02;98723.14;232372;1224;139695;-60
2022/05/11 23:50:33;;;;;;;7.90;5.10;;;;;;;19.18;46.06;98720.92;232359;1224;138441;-60
2022/05/11 23:55:36;;;;;;;10.10;5.30;;;;;;;19.12;46.28;98719.40;232342;1224;138734;-60
